TAF KFAR
KFAR 090530Z 0906/1006 16019G34KT P6SM OVC180 WS020/18045KT FM090800 16016G27KT P6SM BKN150 WS020/18045KT FM091300 18009KT P6SM BKN090 FM091700 30011G22KT P6SM BKN060 FM092200 28009KT P6SM SCT060=
METAR KFAR
WC KFAR
WS KFAR
WV KFAR